sensor_id;sensor_type;location;lat;lon;timestamp;pressure;altitude;pressure_sealevel;temperature;humidity
71795;BME280;59641;45.188;5.712;2023-04-01T00:00:18;98974.44;;;14.76;55.26
71795;BME280;59641;45.188;5.712;2023-04-01T00:02:43;98977.44;;;14.75;55.36
71795;BME280;59641;45.188;5.712;2023-04-01T00:05:10;98986.34;;;14.75;55.42
71795;BME280;59641;45.188;5.712;2023-04-01T00:07:37;98989.03;;;14.75;55.80
71795;BME280;59641;45.188;5.712;2023-04-01T00:10:03;98984.44;;;14.76;55.81
71795;BME280;59641;45.188;5.712;2023-04-01T00:12:29;98995.81;;;14.78;56.09
71795;BME280;59641;45.188;5.712;2023-04-01T00:14:55;98991.22;;;14.78;55.56
71795;BME280;59641;45.188;5.712;2023-04-01T00:17:20;98982.31;;;14.78;55.64
71795;BME280;59641;45.188;5.712;2023-04-01T00:19:46;98982.31;;;14.78;56.06
71795;BME280;59641;45.188;5.712;2023-04-01T00:22:11;98989.31;;;14.79;56.05
71795;BME280;59641;45.188;5.712;2023-04-01T00:24:38;98987.94;;;14.76;56.11
71795;BME280;59641;45.188;5.712;2023-04-01T00:27:03;98993.91;;;14.78;56.20
71795;BME280;59641;45.188;5.712;2023-04-01T00:29:29;98995.56;;;14.79;56.15
71795;BME280;59641;45.188;5.712;2023-04-01T00:31:58;98990.16;;;14.79;56.08
71795;BME280;59641;45.188;5.712;2023-04-01T00:34:24;98987.72;;;14.78;56.23
71795;BME280;59641;45.188;5.712;2023-04-01T00:36:52;98988.53;;;14.78;56.00
71795;BME280;59641;45.188;5.712;2023-04-01T00:39:20;98994.16;;;14.77;56.55
71795;BME280;59641;45.188;5.712;2023-04-01T00:41:45;99002.25;;;14.77;56.43
71795;BME280;59641;45.188;5.712;2023-04-01T00:44:25;98995.25;;;14.76;56.40
71795;BME280;59641;45.188;5.712;2023-04-01T00:46:51;98997.16;;;14.75;56.46
71795;BME280;59641;45.188;5.712;2023-04-01T00:49:20;98980.38;;;14.73;56.46
71795;BME280;59641;45.188;5.712;2023-04-01T00:51:50;98980.38;;;14.73;56.61
71795;BME280;59641;45.188;5.712;2023-04-01T00:54:19;98976.88;;;14.73;56.56
71795;BME280;59641;45.188;5.712;2023-04-01T00:56:48;98990.63;;;14.71;56.52
71795;BME280;59641;45.188;5.712;2023-04-01T00:59:21;98979.00;;;14.70;56.51
71795;BME280;59641;45.188;5.712;2023-04-01T01:01:47;98979.00;;;14.70;56.39
71795;BME280;59641;45.188;5.712;2023-04-01T01:04:27;98975.22;;;14.72;56.28
71795;BME280;59641;45.188;5.712;2023-04-01T01:09:52;98978.19;;;14.70;56.25
71795;BME280;59641;45.188;5.712;2023-04-01T01:17:42;98975.75;;;14.68;56.01
71795;BME280;59641;45.188;5.712;2023-04-01T01:31:44;98970.59;;;14.67;56.18
71795;BME280;59641;45.188;5.712;2023-04-01T01:34:18;98972.19;;;14.63;56.70
71795;BME280;59641;45.188;5.712;2023-04-01T01:36:53;98969.47;;;14.63;56.77
71795;BME280;59641;45.188;5.712;2023-04-01T01:39:24;98974.63;;;14.64;56.68
71795;BME280;59641;45.188;5.712;2023-04-01T01:41:53;98964.91;;;14.63;56.42
71795;BME280;59641;45.188;5.712;2023-04-01T01:44:21;98959.50;;;14.63;56.58
71795;BME280;59641;45.188;5.712;2023-04-01T01:46:48;98967.59;;;14.63;56.26
71795;BME280;59641;45.188;5.712;2023-04-01T01:49:16;98957.03;;;14.62;56.21
71795;BME280;59641;45.188;5.712;2023-04-01T01:51:43;98958.13;;;14.61;56.34
71795;BME280;59641;45.188;5.712;2023-04-01T01:54:13;98961.88;;;14.60;56.50
71795;BME280;59641;45.188;5.712;2023-04-01T01:56:39;98962.97;;;14.59;56.67
71795;BME280;59641;45.188;5.712;2023-04-01T01:59:08;98959.44;;;14.58;56.38
71795;BME280;59641;45.188;5.712;2023-04-01T02:01:39;98958.38;;;14.59;56.91
71795;BME280;59641;45.188;5.712;2023-04-01T02:04:07;98959.44;;;14.58;56.44
71795;BME280;59641;45.188;5.712;2023-04-01T02:06:38;98956.75;;;14.58;56.82
71795;BME280;59641;45.188;5.712;2023-04-01T02:09:10;98953.25;;;14.58;56.67
71795;BME280;59641;45.188;5.712;2023-04-01T02:11:45;98956.75;;;14.58;56.44
71795;BME280;59641;45.188;5.712;2023-04-01T02:14:18;98951.88;;;14.55;56.19
71795;BME280;59641;45.188;5.712;2023-04-01T02:16:59;98960.44;;;14.52;55.97
71795;BME280;59641;45.188;5.712;2023-04-01T02:19:38;98965.78;;;14.47;56.04
71795;BME280;59641;45.188;5.712;2023-04-01T02:22:08;98968.19;;;14.43;56.43
71795;BME280;59641;45.188;5.712;2023-04-01T02:24:36;98956.56;;;14.43;56.52
71795;BME280;59641;45.188;5.712;2023-04-01T02:27:04;98958.44;;;14.42;56.37
71795;BME280;59641;45.188;5.712;2023-04-01T02:29:29;98963.03;;;14.42;56.50
71795;BME280;59641;45.188;5.712;2023-04-01T02:31:55;98960.53;;;14.35;56.25
71795;BME280;59641;45.188;5.712;2023-04-01T02:34:22;98960.25;;;14.32;56.41
71795;BME280;59641;45.188;5.712;2023-04-01T02:36:49;98955.09;;;14.30;56.26
71795;BME280;59641;45.188;5.712;2023-04-01T02:39:15;98948.31;;;14.27;56.78
71795;BME280;59641;45.188;5.712;2023-04-01T02:41:42;98941.31;;;14.26;56.93
71795;BME280;59641;45.188;5.712;2023-04-01T02:44:09;98937.53;;;14.27;56.65
71795;BME280;59641;45.188;5.712;2023-04-01T02:46:35;98947.50;;;14.27;56.84
71795;BME280;59641;45.188;5.712;2023-04-01T02:49:01;98951.81;;;14.28;56.57
71795;BME280;59641;45.188;5.712;2023-04-01T02:51:26;98942.06;;;14.22;56.71
71795;BME280;59641;45.188;5.712;2023-04-01T02:53:52;98947.69;;;14.20;56.75
71795;BME280;59641;45.188;5.712;2023-04-01T02:56:17;98946.09;;;14.19;56.73
71795;BME280;59641;45.188;5.712;2023-04-01T02:58:44;98945.81;;;14.21;56.93
71795;BME280;59641;45.188;5.712;2023-04-01T03:01:09;98946.38;;;14.23;56.98
71795;BME280;59641;45.188;5.712;2023-04-01T03:03:35;98951.25;;;14.26;57.16
71795;BME280;59641;45.188;5.712;2023-04-01T03:06:08;98948.31;;;14.27;56.98
71795;BME280;59641;45.188;5.712;2023-04-01T03:08:34;98949.41;;;14.26;57.04
71795;BME280;59641;45.188;5.712;2023-04-01T03:10:59;98952.63;;;14.28;57.21
71795;BME280;59641;45.188;5.712;2023-04-01T03:13:25;98947.22;;;14.28;56.51
71795;BME280;59641;45.188;5.712;2023-04-01T03:15:50;98946.69;;;14.26;56.86
71795;BME280;59641;45.188;5.712;2023-04-01T03:18:16;98937.75;;;14.26;56.78
71795;BME280;59641;45.188;5.712;2023-04-01T03:20:41;98934.53;;;14.24;57.24
71795;BME280;59641;45.188;5.712;2023-04-01T03:23:07;98938.53;;;14.21;56.86
71795;BME280;59641;45.188;5.712;2023-04-01T03:25:32;98936.63;;;14.17;56.95
71795;BME280;59641;45.188;5.712;2023-04-01T03:27:58;98924.94;;;14.11;57.05
71795;BME280;59641;45.188;5.712;2023-04-01T03:30:25;98926.53;;;14.07;56.97
71795;BME280;59641;45.188;5.712;2023-04-01T03:32:51;98924.59;;;14.02;57.56
71795;BME280;59641;45.188;5.712;2023-04-01T03:35:16;98929.41;;;14.00;57.13
71795;BME280;59641;45.188;5.712;2023-04-01T03:37:42;98933.91;;;13.95;57.50
71795;BME280;59641;45.188;5.712;2023-04-01T03:40:07;98932.28;;;13.94;57.57
71795;BME280;59641;45.188;5.712;2023-04-01T03:42:33;98927.66;;;13.89;57.48
71795;BME280;59641;45.188;5.712;2023-04-01T03:44:58;98920.66;;;13.88;57.92
71795;BME280;59641;45.188;5.712;2023-04-01T03:47:24;98924.97;;;13.89;58.33
71795;BME280;59641;45.188;5.712;2023-04-01T03:49:49;98922.25;;;13.89;58.29
71795;BME280;59641;45.188;5.712;2023-04-01T03:52:15;98922.50;;;13.88;58.07
71795;BME280;59641;45.188;5.712;2023-04-01T03:54:40;98906.31;;;13.88;58.22
71795;BME280;59641;45.188;5.712;2023-04-01T03:57:05;98902.56;;;13.89;58.22
71795;BME280;59641;45.188;5.712;2023-04-01T03:59:31;98898.00;;;13.89;58.35
71795;BME280;59641;45.188;5.712;2023-04-01T04:01:57;98903.72;;;13.93;58.65
71795;BME280;59641;45.188;5.712;2023-04-01T04:04:22;98903.44;;;13.94;58.34
71795;BME280;59641;45.188;5.712;2023-04-01T04:06:47;98908.31;;;13.97;58.30
71795;BME280;59641;45.188;5.712;2023-04-01T04:09:13;98908.88;;;13.99;58.29
71795;BME280;59641;45.188;5.712;2023-04-01T04:11:38;98905.13;;;14.00;58.34
71795;BME280;59641;45.188;5.712;2023-04-01T04:14:04;98897.59;;;14.02;58.10
71795;BME280;59641;45.188;5.712;2023-04-01T04:16:29;98909.22;;;14.03;57.98
71795;BME280;59641;45.188;5.712;2023-04-01T04:18:55;98911.09;;;14.02;57.86
71795;BME280;59641;45.188;5.712;2023-04-01T04:21:20;98905.13;;;14.00;57.68
71795;BME280;59641;45.188;5.712;2023-04-01T04:23:45;98909.44;;;14.01;58.04
71795;BME280;59641;45.188;5.712;2023-04-01T04:26:13;98910.59;;;14.05;57.75
71795;BME280;59641;45.188;5.712;2023-04-01T04:28:39;98933.16;;;13.99;57.50
71795;BME280;59641;45.188;5.712;2023-04-01T04:31:05;98930.97;;;13.96;58.14
71795;BME280;59641;45.188;5.712;2023-04-01T04:33:32;98923.69;;;13.97;57.69
71795;BME280;59641;45.188;5.712;2023-04-01T04:35:58;98914.78;;;13.96;58.14
71795;BME280;59641;45.188;5.712;2023-04-01T04:38:25;98910.22;;;13.97;58.22
71795;BME280;59641;45.188;5.712;2023-04-01T04:40:50;98905.63;;;13.97;57.95
71795;BME280;59641;45.188;5.712;2023-04-01T04:43:17;98911.28;;;13.96;57.87
71795;BME280;59641;45.188;5.712;2023-04-01T04:45:42;98914.50;;;13.93;58.44
71795;BME280;59641;45.188;5.712;2023-04-01T04:48:09;98917.19;;;13.93;58.11
71795;BME280;59641;45.188;5.712;2023-04-01T04:50:35;98932.28;;;13.94;58.48
71795;BME280;59641;45.188;5.712;2023-04-01T04:53:00;98939.31;;;13.95;57.89
71795;BME280;59641;45.188;5.712;2023-04-01T04:55:26;98927.47;;;13.96;58.08
71795;BME280;59641;45.188;5.712;2023-04-01T04:57:51;98925.81;;;13.95;58.31
71795;BME280;59641;45.188;5.712;2023-04-01T05:00:16;98924.78;;;13.96;58.04
71795;BME280;59641;45.188;5.712;2023-04-01T05:02:42;98925.00;;;13.94;58.37
71795;BME280;59641;45.188;5.712;2023-04-01T05:05:07;98915.59;;;13.97;58.31
71795;BME280;59641;45.188;5.712;2023-04-01T05:07:33;98910.47;;;13.95;57.88
71795;BME280;59641;45.188;5.712;2023-04-01T05:09:59;98918.25;;;13.92;57.99
71795;BME280;59641;45.188;5.712;2023-04-01T05:12:25;98918.25;;;13.92;58.38
71795;BME280;59641;45.188;5.712;2023-04-01T05:14:50;98909.91;;;13.93;58.45
71795;BME280;59641;45.188;5.712;2023-04-01T05:17:16;98906.13;;;13.94;58.39
71795;BME280;59641;45.188;5.712;2023-04-01T05:19:41;98905.91;;;13.96;58.93
71795;BME280;59641;45.188;5.712;2023-04-01T05:22:06;98907.50;;;13.97;58.43
71795;BME280;59641;45.188;5.712;2023-04-01T05:24:32;98902.13;;;13.97;58.30
71795;BME280;59641;45.188;5.712;2023-04-01T05:26:58;98911.00;;;13.97;58.60
71795;BME280;59641;45.188;5.712;2023-04-01T05:29:25;98911.00;;;13.97;58.40
71795;BME280;59641;45.188;5.712;2023-04-01T05:31:50;98921.56;;;13.99;58.49
71795;BME280;59641;45.188;5.712;2023-04-01T05:34:15;98920.50;;;14.00;58.49
71795;BME280;59641;45.188;5.712;2023-04-01T05:36:42;98929.13;;;14.02;58.26
71795;BME280;59641;45.188;5.712;2023-04-01T05:39:07;98918.34;;;14.02;58.44
71795;BME280;59641;45.188;5.712;2023-04-01T05:41:37;98920.25;;;14.01;58.33
71795;BME280;59641;45.188;5.712;2023-04-01T05:44:03;98942.09;;;14.00;58.51
71795;BME280;59641;45.188;5.712;2023-04-01T05:46:29;98936.44;;;14.01;58.54
71795;BME280;59641;45.188;5.712;2023-04-01T05:48:54;98938.31;;;14.01;58.69
71795;BME280;59641;45.188;5.712;2023-04-01T05:51:20;98952.38;;;14.03;58.34
71795;BME280;59641;45.188;5.712;2023-04-01T05:53:45;98951.56;;;14.02;58.34
71795;BME280;59641;45.188;5.712;2023-04-01T05:56:10;98948.03;;;14.02;58.57
71795;BME280;59641;45.188;5.712;2023-04-01T05:58:36;98947.22;;;14.01;58.58
71795;BME280;59641;45.188;5.712;2023-04-01T06:01:11;98954.25;;;14.02;58.43
71795;BME280;59641;45.188;5.712;2023-04-01T06:03:37;98968.00;;;14.01;58.86
71795;BME280;59641;45.188;5.712;2023-04-01T06:06:02;98957.75;;;14.03;58.37
71795;BME280;59641;45.188;5.712;2023-04-01T06:08:30;98959.38;;;14.04;58.59
71795;BME280;59641;45.188;5.712;2023-04-01T06:13:49;98964.53;;;14.05;58.38
71795;BME280;59641;45.188;5.712;2023-04-01T06:16:30;98971.81;;;14.05;58.67
71795;BME280;59641;45.188;5.712;2023-04-01T06:22:18;98985.03;;;14.06;58.31
71795;BME280;59641;45.188;5.712;2023-04-01T06:32:58;98990.72;;;14.05;58.97
71795;BME280;59641;45.188;5.712;2023-04-01T06:35:34;98983.09;;;14.02;58.66
71795;BME280;59641;45.188;5.712;2023-04-01T06:43:43;98984.94;;;13.96;59.01
71795;BME280;59641;45.188;5.712;2023-04-01T06:46:32;98987.31;;;13.93;58.80
71795;BME280;59641;45.188;5.712;2023-04-01T06:54:33;98994.00;;;13.90;58.87
71795;BME280;59641;45.188;5.712;2023-04-01T06:57:23;99000.81;;;13.93;58.69
71795;BME280;59641;45.188;5.712;2023-04-01T06:59:55;99001.56;;;13.88;58.52
71795;BME280;59641;45.188;5.712;2023-04-01T07:05:23;99004.78;;;13.90;58.86
71795;BME280;59641;45.188;5.712;2023-04-01T07:07:54;99004.03;;;13.95;58.71
71795;BME280;59641;45.188;5.712;2023-04-01T07:10:39;99010.56;;;13.99;58.52
71795;BME280;59641;45.188;5.712;2023-04-01T07:13:17;99009.84;;;14.03;58.40
71795;BME280;59641;45.188;5.712;2023-04-01T07:15:55;99013.91;;;14.06;58.09
71795;BME280;59641;45.188;5.712;2023-04-01T07:18:46;99007.69;;;14.05;58.01
71795;BME280;59641;45.188;5.712;2023-04-01T07:21:22;99004.25;;;14.10;58.10
71795;BME280;59641;45.188;5.712;2023-04-01T07:23:50;99018.03;;;14.14;58.45
71795;BME280;59641;45.188;5.712;2023-04-01T07:26:20;99005.94;;;14.16;58.26
71795;BME280;59641;45.188;5.712;2023-04-01T07:28:51;99008.69;;;14.21;58.19
71795;BME280;59641;45.188;5.712;2023-04-01T07:36:47;99008.00;;;14.31;57.89
71795;BME280;59641;45.188;5.712;2023-04-01T07:47:45;99003.56;;;14.47;57.81
71795;BME280;59641;45.188;5.712;2023-04-01T07:50:27;99003.91;;;14.51;58.02
71795;BME280;59641;45.188;5.712;2023-04-01T07:53:08;98991.53;;;14.55;57.79
71795;BME280;59641;45.188;5.712;2023-04-01T07:55:52;98986.13;;;14.55;57.57
71795;BME280;59641;45.188;5.712;2023-04-01T08:04:12;98990.94;;;14.53;57.83
71795;BME280;59641;45.188;5.712;2023-04-01T08:12:21;99016.97;;;14.59;57.79
71795;BME280;59641;45.188;5.712;2023-04-01T08:15:22;99020.75;;;14.58;57.56
71795;BME280;59641;45.188;5.712;2023-04-01T08:20:37;99026.69;;;14.60;57.33
71795;BME280;59641;45.188;5.712;2023-04-01T08:23:11;99038.88;;;14.62;57.24
71795;BME280;59641;45.188;5.712;2023-04-01T08:25:42;99047.53;;;14.64;57.57
71795;BME280;59641;45.188;5.712;2023-04-01T08:31:08;99048.34;;;14.65;57.63
71795;BME280;59641;45.188;5.712;2023-04-01T08:33:36;99044.81;;;14.64;57.54
71795;BME280;59641;45.188;5.712;2023-04-01T08:36:08;99039.69;;;14.63;57.62
71795;BME280;59641;45.188;5.712;2023-04-01T08:38:43;99033.47;;;14.62;57.60
71795;BME280;59641;45.188;5.712;2023-04-01T08:52:07;99026.63;;;14.55;57.83
71795;BME280;59641;45.188;5.712;2023-04-01T08:57:36;99028.53;;;14.54;57.53
71795;BME280;59641;45.188;5.712;2023-04-01T09:03:26;99014.50;;;14.57;57.28
71795;BME280;59641;45.188;5.712;2023-04-01T09:06:20;99013.19;;;14.60;57.37
71795;BME280;59641;45.188;5.712;2023-04-01T09:30:31;98991.47;;;14.77;56.11
71795;BME280;59641;45.188;5.712;2023-04-01T09:35:47;98990.16;;;14.79;55.18
71795;BME280;59641;45.188;5.712;2023-04-01T09:46:30;98994.88;;;14.94;54.99
71795;BME280;59641;45.188;5.712;2023-04-01T09:49:25;98986.81;;;14.99;54.82
71795;BME280;59641;45.188;5.712;2023-04-01T10:00:09;98986.44;;;15.18;54.08
71795;BME280;59641;45.188;5.712;2023-04-01T10:02:54;98982.09;;;15.22;54.20
71795;BME280;59641;45.188;5.712;2023-04-01T10:11:36;98970.16;;;15.12;53.88
71795;BME280;59641;45.188;5.712;2023-04-01T10:20:00;98960.78;;;15.20;53.49
71795;BME280;59641;45.188;5.712;2023-04-01T10:22:43;98956.72;;;15.23;54.10
71795;BME280;59641;45.188;5.712;2023-04-01T10:36:35;98950.31;;;15.39;54.07
71795;BME280;59641;45.188;5.712;2023-04-01T11:04:57;98912.00;;;15.52;54.19
71795;BME280;59641;45.188;5.712;2023-04-01T11:07:58;98905.25;;;15.55;54.37
71795;BME280;59641;45.188;5.712;2023-04-01T11:24:37;98919.41;;;15.72;53.41
71795;BME280;59641;45.188;5.712;2023-04-01T11:27:29;98913.47;;;15.70;53.20
71795;BME280;59641;45.188;5.712;2023-04-01T11:33:40;98913.97;;;15.67;52.93
71795;BME280;59641;45.188;5.712;2023-04-01T11:42:09;98908.28;;;15.64;53.68
71795;BME280;59641;45.188;5.712;2023-04-01T11:44:45;98897.19;;;15.65;53.97
71795;BME280;59641;45.188;5.712;2023-04-01T12:06:30;98862.16;;;15.96;53.27
71795;BME280;59641;45.188;5.712;2023-04-01T12:09:18;98847.00;;;16.00;53.17
71795;BME280;59641;45.188;5.712;2023-04-01T12:17:29;98833.75;;;16.04;52.25
71795;BME280;59641;45.188;5.712;2023-04-01T12:22:41;98822.13;;;16.13;52.14
71795;BME280;59641;45.188;5.712;2023-04-01T12:33:24;98795.03;;;16.18;51.63
71795;BME280;59641;45.188;5.712;2023-04-01T12:36:08;98794.78;;;16.20;51.09
71795;BME280;59641;45.188;5.712;2023-04-01T12:39:47;98792.09;;;16.20;51.27
71795;BME280;59641;45.188;5.712;2023-04-01T12:41:49;98788.31;;;16.21;50.99
71795;BME280;59641;45.188;5.712;2023-04-01T12:55:18;98761.50;;;16.30;50.62
71795;BME280;59641;45.188;5.712;2023-04-01T12:58:10;98752.03;;;16.27;50.37
71795;BME280;59641;45.188;5.712;2023-04-01T13:06:21;98749.31;;;16.27;50.66
71795;BME280;59641;45.188;5.712;2023-04-01T13:16:48;98718.97;;;16.30;50.52
71795;BME280;59641;45.188;5.712;2023-04-01T13:19:23;98700.88;;;16.31;50.55
71795;BME280;59641;45.188;5.712;2023-04-01T13:22:20;98702.22;;;16.33;49.98
71795;BME280;59641;45.188;5.712;2023-04-01T13:25:13;98696.25;;;16.36;49.68
71795;BME280;59641;45.188;5.712;2023-04-01T13:27:44;98691.88;;;16.35;49.37
71795;BME280;59641;45.188;5.712;2023-04-01T13:30:33;98682.44;;;16.38;49.41
71795;BME280;59641;45.188;5.712;2023-04-01T13:33:17;98678.38;;;16.40;49.73
71795;BME280;59641;45.188;5.712;2023-04-01T13:42:04;98657.75;;;16.45;49.11
71795;BME280;59641;45.188;5.712;2023-04-01T13:44:36;98659.66;;;16.44;49.41
71795;BME280;59641;45.188;5.712;2023-04-01T13:47:25;98657.50;;;16.46;49.17
71795;BME280;59641;45.188;5.712;2023-04-01T13:53:16;98652.88;;;16.47;48.94
71795;BME280;59641;45.188;5.712;2023-04-01T13:55:55;98648.28;;;16.47;48.05
71795;BME280;59641;45.188;5.712;2023-04-01T13:58:57;98645.28;;;16.49;48.95
71795;BME280;59641;45.188;5.712;2023-04-01T14:01:33;98648.81;;;16.44;47.91
71795;BME280;59641;45.188;5.712;2023-04-01T14:12:30;98649.66;;;16.39;47.94
71795;BME280;59641;45.188;5.712;2023-04-01T14:15:11;98653.16;;;16.40;48.13
71795;BME280;59641;45.188;5.712;2023-04-01T14:20:27;98651.28;;;16.35;49.12
71795;BME280;59641;45.188;5.712;2023-04-01T14:31:46;98656.50;;;16.16;49.25
71795;BME280;59641;45.188;5.712;2023-04-01T14:34:44;98652.44;;;16.14;49.46
71795;BME280;59641;45.188;5.712;2023-04-01T14:43:43;98668.69;;;15.93;49.92
71795;BME280;59641;45.188;5.712;2023-04-01T14:49:38;98680.59;;;15.77;50.04
71795;BME280;59641;45.188;5.712;2023-04-01T14:52:27;98680.81;;;15.65;50.17
71795;BME280;59641;45.188;5.712;2023-04-01T14:54:53;98682.97;;;15.53;50.38
71795;BME280;59641;45.188;5.712;2023-04-01T14:57:28;98686.78;;;15.47;50.59
71795;BME280;59641;45.188;5.712;2023-04-01T15:00:00;98687.28;;;15.39;51.33
71795;BME280;59641;45.188;5.712;2023-04-01T15:02:42;98685.66;;;15.32;51.66
71795;BME280;59641;45.188;5.712;2023-04-01T15:11:16;98704.81;;;15.10;51.78
71795;BME280;59641;45.188;5.712;2023-04-01T15:13:50;98708.31;;;15.06;52.07
71795;BME280;59641;45.188;5.712;2023-04-01T15:16:34;98717.44;;;15.00;51.94
71795;BME280;59641;45.188;5.712;2023-04-01T15:21:59;98727.13;;;14.85;52.40
71795;BME280;59641;45.188;5.712;2023-04-01T15:25:02;98725.72;;;14.78;53.23
71795;BME280;59641;45.188;5.712;2023-04-01T15:38:07;98699.72;;;14.61;54.85
71795;BME280;59641;45.188;5.712;2023-04-01T15:40:40;98713.47;;;14.60;55.60
71795;BME280;59641;45.188;5.712;2023-04-01T15:43:31;98729.97;;;14.58;55.57
71795;BME280;59641;45.188;5.712;2023-04-01T15:49:04;98702.91;;;14.53;55.93
71795;BME280;59641;45.188;5.712;2023-04-01T15:54:26;98700.69;;;14.50;56.47
71795;BME280;59641;45.188;5.712;2023-04-01T15:57:47;98699.09;;;14.49;56.80
71795;BME280;59641;45.188;5.712;2023-04-01T15:59:58;98702.03;;;14.47;57.15
71795;BME280;59641;45.188;5.712;2023-04-01T16:22:02;98754.19;;;14.53;57.48
71795;BME280;59641;45.188;5.712;2023-04-01T16:24:35;98753.63;;;14.51;58.02
71795;BME280;59641;45.188;5.712;2023-04-01T16:32:54;98773.06;;;14.48;57.73
71795;BME280;59641;45.188;5.712;2023-04-01T16:35:24;98762.47;;;14.41;57.51
71795;BME280;59641;45.188;5.712;2023-04-01T16:37:55;98758.63;;;14.32;57.65
71795;BME280;59641;45.188;5.712;2023-04-01T16:40:47;98757.50;;;14.28;57.44
71795;BME280;59641;45.188;5.712;2023-04-01T16:43:35;98767.72;;;14.21;57.42
71795;BME280;59641;45.188;5.712;2023-04-01T16:46:26;98773.34;;;14.14;57.36
71795;BME280;59641;45.188;5.712;2023-04-01T16:56:55;98756.66;;;13.90;55.99
71795;BME280;59641;45.188;5.712;2023-04-01T17:26:42;98741.00;;;13.87;55.87
71795;BME280;59641;45.188;5.712;2023-04-01T17:34:28;98742.13;;;13.91;55.76
71795;BME280;59641;45.188;5.712;2023-04-01T17:37:38;98738.63;;;13.91;55.55
71795;BME280;59641;45.188;5.712;2023-04-01T17:43:17;98752.88;;;13.86;55.20
71795;BME280;59641;45.188;5.712;2023-04-01T17:45:57;98756.38;;;13.87;55.37
71795;BME280;59641;45.188;5.712;2023-04-01T17:48:46;98761.53;;;13.88;55.42
71795;BME280;59641;45.188;5.712;2023-04-01T17:51:32;98766.91;;;13.88;55.69
71795;BME280;59641;45.188;5.712;2023-04-01T17:59:39;98768.28;;;13.91;55.56
71795;BME280;59641;45.188;5.712;2023-04-01T18:15:55;98804.06;;;13.81;55.85
71795;BME280;59641;45.188;5.712;2023-04-01T18:26:47;98823.13;;;13.74;55.96
71795;BME280;59641;45.188;5.712;2023-04-01T18:28:56;98823.38;;;13.73;56.39
71795;BME280;59641;45.188;5.712;2023-04-01T18:31:27;98823.91;;;13.70;56.58
71795;BME280;59641;45.188;5.712;2023-04-01T18:34:14;98830.84;;;13.66;57.16
71795;BME280;59641;45.188;5.712;2023-04-01T18:36:56;98831.59;;;13.61;57.47
71795;BME280;59641;45.188;5.712;2023-04-01T18:39:39;98829.44;;;13.58;57.74
71795;BME280;59641;45.188;5.712;2023-04-01T18:42:57;98828.28;;;13.54;57.49
71795;BME280;59641;45.188;5.712;2023-04-01T18:45:37;98830.94;;;13.49;58.17
71795;BME280;59641;45.188;5.712;2023-04-01T18:51:11;98828.69;;;13.40;58.79
71795;BME280;59641;45.188;5.712;2023-04-01T18:56:34;98836.16;;;13.33;58.88
71795;BME280;59641;45.188;5.712;2023-04-01T18:59:25;98840.97;;;13.31;58.69
71795;BME280;59641;45.188;5.712;2023-04-01T19:04:53;98840.31;;;13.24;59.02
71795;BME280;59641;45.188;5.712;2023-04-01T19:11:06;98844.81;;;13.18;59.56
71795;BME280;59641;45.188;5.712;2023-04-01T19:21:58;98853.25;;;13.05;60.18
71795;BME280;59641;45.188;5.712;2023-04-01T19:27:19;98865.84;;;12.99;59.80
71795;BME280;59641;45.188;5.712;2023-04-01T19:43:11;98866.28;;;12.74;60.99
71795;BME280;59641;45.188;5.712;2023-04-01T19:45:44;98873.81;;;12.72;61.52
71795;BME280;59641;45.188;5.712;2023-04-01T19:48:50;98872.72;;;12.73;61.45
71795;BME280;59641;45.188;5.712;2023-04-01T19:54:21;98867.84;;;12.70;61.45
71795;BME280;59641;45.188;5.712;2023-04-01T19:57:04;98869.22;;;12.73;61.76
71795;BME280;59641;45.188;5.712;2023-04-01T20:04:41;98873.31;;;12.75;61.58
71795;BME280;59641;45.188;5.712;2023-04-01T20:07:16;98873.31;;;12.75;61.24
71795;BME280;59641;45.188;5.712;2023-04-01T20:10:25;98868.97;;;12.74;61.36
71795;BME280;59641;45.188;5.712;2023-04-01T20:13:11;98867.34;;;12.73;61.78
71795;BME280;59641;45.188;5.712;2023-04-01T20:15:47;98861.16;;;12.73;61.79
71795;BME280;59641;45.188;5.712;2023-04-01T20:18:36;98865.47;;;12.74;61.59
71795;BME280;59641;45.188;5.712;2023-04-01T20:21:17;98867.34;;;12.73;61.45
71795;BME280;59641;45.188;5.712;2023-04-01T20:23:56;98864.66;;;12.73;61.60
71795;BME280;59641;45.188;5.712;2023-04-01T20:26:27;98861.16;;;12.73;61.45
71795;BME280;59641;45.188;5.712;2023-04-01T20:29:17;98863.84;;;12.73;61.17
71795;BME280;59641;45.188;5.712;2023-04-01T20:38:11;98856.72;;;12.67;61.34
71795;BME280;59641;45.188;5.712;2023-04-01T20:40:28;98857.81;;;12.66;61.07
71795;BME280;59641;45.188;5.712;2023-04-01T20:45:55;98849.97;;;12.64;61.05
71795;BME280;59641;45.188;5.712;2023-04-01T20:51:31;98863.66;;;12.63;61.04
71795;BME280;59641;45.188;5.712;2023-04-01T20:54:28;98851.28;;;12.62;61.24
71795;BME280;59641;45.188;5.712;2023-04-01T21:14:07;98845.75;;;12.51;61.88
71795;BME280;59641;45.188;5.712;2023-04-01T21:17:17;98853.81;;;12.51;62.03
71795;BME280;59641;45.188;5.712;2023-04-01T21:20:21;98854.63;;;12.52;62.45
71795;BME280;59641;45.188;5.712;2023-04-01T21:23:11;98854.38;;;12.53;62.21
71795;BME280;59641;45.188;5.712;2023-04-01T21:26:23;98852.75;;;12.52;62.28
71795;BME280;59641;45.188;5.712;2023-04-01T21:34:48;98860.34;;;12.55;62.54
71795;BME280;59641;45.188;5.712;2023-04-01T21:40:11;98858.19;;;12.57;62.29
71795;BME280;59641;45.188;5.712;2023-04-01T21:59:18;98847.69;;;12.39;61.93
71795;BME280;59641;45.188;5.712;2023-04-01T22:07:59;98845.09;;;12.27;62.69
71795;BME280;59641;45.188;5.712;2023-04-01T22:19:02;98831.22;;;12.19;62.72
71795;BME280;59641;45.188;5.712;2023-04-01T22:21:44;98833.09;;;12.18;63.03
71795;BME280;59641;45.188;5.712;2023-04-01T22:32:40;98839.28;;;12.19;63.15
71795;BME280;59641;45.188;5.712;2023-04-01T22:41:46;98850.31;;;12.17;62.89
71795;BME280;59641;45.188;5.712;2023-04-01T22:44:38;98849.22;;;12.18;62.93
71795;BME280;59641;45.188;5.712;2023-04-01T22:47:28;98840.34;;;12.18;62.63
71795;BME280;59641;45.188;5.712;2023-04-01T22:49:58;98848.41;;;12.18;63.12
71795;BME280;59641;45.188;5.712;2023-04-01T22:52:33;98841.97;;;12.19;62.83